sensor_id;sensor_type;location;lat;lon;timestamp;pressure;altitude;pressure_sealevel;temperature;humidity
63819;BME280;49970;54.976;73.248;2022-11-25T00:01:19;100747.59;;;-18.22;81.02
63819;BME280;49970;54.976;73.248;2022-11-25T00:03:49;100764.00;;;-18.14;81.52
63819;BME280;49970;54.976;73.248;2022-11-25T00:06:21;100767.88;;;-18.04;81.79
63819;BME280;49970;54.976;73.248;2022-11-25T00:09:00;100778.91;;;-18.02;80.89
63819;BME280;49970;54.976;73.248;2022-11-25T00:11:28;100775.50;;;-18.02;81.12
63819;BME280;49970;54.976;73.248;2022-11-25T00:14:00;100757.00;;;-18.01;81.71
63819;BME280;49970;54.976;73.248;2022-11-25T00:16:29;100771.81;;;-17.93;80.84
63819;BME280;49970;54.976;73.248;2022-11-25T00:18:59;100763.25;;;-17.95;80.93
63819;BME280;49970;54.976;73.248;2022-11-25T00:21:32;100764.34;;;-17.90;80.82
63819;BME280;49970;54.976;73.248;2022-11-25T00:24:04;100771.94;;;-17.90;81.01
63819;BME280;49970;54.976;73.248;2022-11-25T00:26:34;100765.00;;;-17.94;81.02
63819;BME280;49970;54.976;73.248;2022-11-25T00:29:06;100779.53;;;-17.90;80.68
63819;BME280;49970;54.976;73.248;2022-11-25T00:31:37;100777.78;;;-17.91;81.20
63819;BME280;49970;54.976;73.248;2022-11-25T00:34:11;100772.56;;;-17.94;82.00
63819;BME280;49970;54.976;73.248;2022-11-25T00:36:42;100776.22;;;-17.89;81.94
63819;BME280;49970;54.976;73.248;2022-11-25T00:39:13;100780.72;;;-17.83;81.50
63819;BME280;49970;54.976;73.248;2022-11-25T00:41:43;100777.97;;;-17.88;81.22
63819;BME280;49970;54.976;73.248;2022-11-25T00:44:35;100779.69;;;-17.87;81.88
63819;BME280;49970;54.976;73.248;2022-11-25T00:47:18;100783.09;;;-17.86;82.35
63819;BME280;49970;54.976;73.248;2022-11-25T00:49:50;100773.81;;;-17.86;81.63
63819;BME280;49970;54.976;73.248;2022-11-25T00:52:22;100768.88;;;-17.84;82.38
63819;BME280;49970;54.976;73.248;2022-11-25T00:54:51;100772.38;;;-17.80;82.16
63819;BME280;49970;54.976;73.248;2022-11-25T00:57:21;100781.66;;;-17.81;81.78
63819;BME280;49970;54.976;73.248;2022-11-25T00:59:50;100781.88;;;-17.76;81.65
63819;BME280;49970;54.976;73.248;2022-11-25T01:02:22;100780.31;;;-17.73;82.57
63819;BME280;49970;54.976;73.248;2022-11-25T01:04:52;100772.97;;;-17.68;82.49
63819;BME280;49970;54.976;73.248;2022-11-25T01:07:22;100778.19;;;-17.65;81.54
63819;BME280;49970;54.976;73.248;2022-11-25T01:09:51;100779.91;;;-17.64;82.50
63819;BME280;49970;54.976;73.248;2022-11-25T01:12:22;100774.16;;;-17.62;81.25
63819;BME280;49970;54.976;73.248;2022-11-25T01:14:53;100775.97;;;-17.59;81.93
63819;BME280;49970;54.976;73.248;2022-11-25T01:17:23;100770.09;;;-17.58;82.69
63819;BME280;49970;54.976;73.248;2022-11-25T01:19:55;100774.38;;;-17.57;82.13
63819;BME280;49970;54.976;73.248;2022-11-25T01:22:35;100781.09;;;-17.57;81.70
63819;BME280;49970;54.976;73.248;2022-11-25T01:25:04;100775.22;;;-17.56;81.81
63819;BME280;49970;54.976;73.248;2022-11-25T01:27:41;100782.13;;;-17.54;82.77
63819;BME280;49970;54.976;73.248;2022-11-25T01:30:11;100782.03;;;-17.55;81.86
63819;BME280;49970;54.976;73.248;2022-11-25T01:32:52;100774.38;;;-17.57;82.77
63819;BME280;49970;54.976;73.248;2022-11-25T01:35:22;100775.22;;;-17.56;82.95
63819;BME280;49970;54.976;73.248;2022-11-25T01:37:53;100774.53;;;-17.54;81.79
63819;BME280;49970;54.976;73.248;2022-11-25T01:40:25;100768.28;;;-17.61;82.53
63819;BME280;49970;54.976;73.248;2022-11-25T01:42:55;100771.78;;;-17.58;82.87
63819;BME280;49970;54.976;73.248;2022-11-25T01:45:33;100775.16;;;-17.58;82.60
63819;BME280;49970;54.976;73.248;2022-11-25T01:48:59;100765.47;;;-17.67;82.12
63819;BME280;49970;54.976;73.248;2022-11-25T01:51:16;100775.16;;;-17.58;81.61
63819;BME280;49970;54.976;73.248;2022-11-25T01:53:49;100777.38;;;-17.64;82.85
63819;BME280;49970;54.976;73.248;2022-11-25T01:56:17;100775.59;;;-17.67;81.89
63819;BME280;49970;54.976;73.248;2022-11-25T01:58:52;100762.63;;;-17.73;82.17
63819;BME280;49970;54.976;73.248;2022-11-25T02:01:32;100768.44;;;-17.75;81.83
63819;BME280;49970;54.976;73.248;2022-11-25T02:04:13;100766.63;;;-17.78;82.36
63819;BME280;49970;54.976;73.248;2022-11-25T02:06:54;100780.88;;;-17.80;82.28
63819;BME280;49970;54.976;73.248;2022-11-25T02:09:26;100779.91;;;-17.82;81.16
63819;BME280;49970;54.976;73.248;2022-11-25T02:11:56;100771.72;;;-17.94;81.94
63819;BME280;49970;54.976;73.248;2022-11-25T02:14:25;100790.28;;;-17.94;82.03
63819;BME280;49970;54.976;73.248;2022-11-25T02:16:53;100789.03;;;-18.02;80.73
63819;BME280;49970;54.976;73.248;2022-11-25T02:19:26;100777.09;;;-18.04;81.06
63819;BME280;49970;54.976;73.248;2022-11-25T02:22:04;100788.00;;;-18.05;81.90
63819;BME280;49970;54.976;73.248;2022-11-25T02:24:45;100776.88;;;-18.09;81.45
63819;BME280;49970;54.976;73.248;2022-11-25T02:27:22;100787.22;;;-18.04;82.20
63819;BME280;49970;54.976;73.248;2022-11-25T02:29:59;100798.19;;;-18.04;81.87
63819;BME280;49970;54.976;73.248;2022-11-25T02:32:30;100795.97;;;-18.14;81.53
63819;BME280;49970;54.976;73.248;2022-11-25T02:35:17;100804.94;;;-18.21;80.42
63819;BME280;49970;54.976;73.248;2022-11-25T02:37:50;100798.53;;;-18.30;80.78
63819;BME280;49970;54.976;73.248;2022-11-25T02:40:19;100804.06;;;-18.38;81.12
63819;BME280;49970;54.976;73.248;2022-11-25T02:42:49;100808.53;;;-18.48;80.13
63819;BME280;49970;54.976;73.248;2022-11-25T02:45:21;100809.94;;;-18.53;80.34
63819;BME280;49970;54.976;73.248;2022-11-25T02:48:06;100815.63;;;-18.57;80.08
63819;BME280;49970;54.976;73.248;2022-11-25T02:50:41;100818.84;;;-18.60;80.48
63819;BME280;49970;54.976;73.248;2022-11-25T02:53:09;100810.09;;;-18.67;79.89
63819;BME280;49970;54.976;73.248;2022-11-25T02:55:39;100816.59;;;-18.72;79.91
63819;BME280;49970;54.976;73.248;2022-11-25T02:58:10;100813.09;;;-18.74;80.40
63819;BME280;49970;54.976;73.248;2022-11-25T03:00:46;100817.03;;;-18.79;80.32
63819;BME280;49970;54.976;73.248;2022-11-25T03:03:17;100819.16;;;-18.87;80.05
63819;BME280;49970;54.976;73.248;2022-11-25T03:05:52;100822.97;;;-18.93;79.54
63819;BME280;49970;54.976;73.248;2022-11-25T03:08:21;100821.00;;;-18.99;80.31
63819;BME280;49970;54.976;73.248;2022-11-25T03:10:50;100826.84;;;-19.00;79.01
63819;BME280;49970;54.976;73.248;2022-11-25T03:13:20;100822.66;;;-18.99;79.85
63819;BME280;49970;54.976;73.248;2022-11-25T03:15:50;100816.50;;;-19.04;79.31
63819;BME280;49970;54.976;73.248;2022-11-25T03:18:24;100818.47;;;-18.99;78.88
63819;BME280;49970;54.976;73.248;2022-11-25T03:20:57;100837.00;;;-18.98;79.51
63819;BME280;49970;54.976;73.248;2022-11-25T03:23:37;100832.75;;;-18.99;80.15
63819;BME280;49970;54.976;73.248;2022-11-25T03:26:08;100832.69;;;-19.01;78.91
63819;BME280;49970;54.976;73.248;2022-11-25T03:28:40;100832.56;;;-19.02;79.54
63819;BME280;49970;54.976;73.248;2022-11-25T03:31:10;100838.59;;;-19.00;79.40
63819;BME280;49970;54.976;73.248;2022-11-25T03:33:41;100834.16;;;-19.04;78.44
63819;BME280;49970;54.976;73.248;2022-11-25T03:36:11;100836.59;;;-19.06;78.71
63819;BME280;49970;54.976;73.248;2022-11-25T03:38:42;100838.41;;;-19.03;78.96
63819;BME280;49970;54.976;73.248;2022-11-25T03:41:22;100833.13;;;-19.08;79.77
63819;BME280;49970;54.976;73.248;2022-11-25T03:43:54;100836.44;;;-19.09;79.47
63819;BME280;49970;54.976;73.248;2022-11-25T03:46:34;100846.78;;;-19.04;78.79
63819;BME280;49970;54.976;73.248;2022-11-25T03:49:13;100840.00;;;-19.05;78.65
63819;BME280;49970;54.976;73.248;2022-11-25T03:51:44;100847.47;;;-19.07;78.16
63819;BME280;49970;54.976;73.248;2022-11-25T03:54:18;100851.41;;;-19.12;78.28
63819;BME280;49970;54.976;73.248;2022-11-25T03:57:12;100851.31;;;-19.14;77.78
63819;BME280;49970;54.976;73.248;2022-11-25T03:59:42;100857.25;;;-19.13;79.10
63819;BME280;49970;54.976;73.248;2022-11-25T04:02:11;100857.25;;;-19.13;77.89
63819;BME280;49970;54.976;73.248;2022-11-25T04:04:41;100858.91;;;-19.14;78.20
63819;BME280;49970;54.976;73.248;2022-11-25T04:07:13;100879.09;;;-19.14;78.22
63819;BME280;49970;54.976;73.248;2022-11-25T04:09:54;100845.03;;;-19.35;77.99
63819;BME280;49970;54.976;73.248;2022-11-25T04:12:28;100871.41;;;-19.15;77.94
63819;BME280;49970;54.976;73.248;2022-11-25T04:15:32;100878.97;;;-19.15;77.03
63819;BME280;49970;54.976;73.248;2022-11-25T04:18:03;100879.84;;;-19.15;77.66
63819;BME280;49970;54.976;73.248;2022-11-25T04:20:38;100883.53;;;-19.09;76.93
63819;BME280;49970;54.976;73.248;2022-11-25T04:23:21;100853.22;;;-19.24;77.20
63819;BME280;49970;54.976;73.248;2022-11-25T04:25:58;100891.44;;;-19.03;77.73
63819;BME280;49970;54.976;73.248;2022-11-25T04:28:36;100888.13;;;-19.02;76.35
63819;BME280;49970;54.976;73.248;2022-11-25T04:31:12;100896.47;;;-19.03;77.15
63819;BME280;49970;54.976;73.248;2022-11-25T04:33:44;100899.19;;;-19.00;77.77
63819;BME280;49970;54.976;73.248;2022-11-25T04:36:24;100886.38;;;-19.03;77.60
63819;BME280;49970;54.976;73.248;2022-11-25T04:38:55;100893.34;;;-18.99;76.50
63819;BME280;49970;54.976;73.248;2022-11-25T04:41:27;100890.03;;;-18.98;76.72
63819;BME280;49970;54.976;73.248;2022-11-25T04:44:02;100890.22;;;-18.95;77.48
63819;BME280;49970;54.976;73.248;2022-11-25T04:46:42;100907.19;;;-18.93;76.52
63819;BME280;49970;54.976;73.248;2022-11-25T04:49:12;100907.59;;;-18.85;77.85
63819;BME280;49970;54.976;73.248;2022-11-25T04:51:44;100916.47;;;-18.77;77.21
63819;BME280;49970;54.976;73.248;2022-11-25T04:54:16;100913.09;;;-18.77;76.85
63819;BME280;49970;54.976;73.248;2022-11-25T04:56:48;100912.22;;;-18.78;76.30
63819;BME280;49970;54.976;73.248;2022-11-25T04:59:21;100916.47;;;-18.77;76.35
63819;BME280;49970;54.976;73.248;2022-11-25T05:02:19;100920.59;;;-18.79;76.17
63819;BME280;49970;54.976;73.248;2022-11-25T05:05:08;100927.28;;;-18.79;76.62
63819;BME280;49970;54.976;73.248;2022-11-25T05:07:39;100918.94;;;-18.78;77.44
63819;BME280;49970;54.976;73.248;2022-11-25T05:10:08;100928.66;;;-18.70;76.85
63819;BME280;49970;54.976;73.248;2022-11-25T05:12:42;100934.03;;;-18.64;76.45
63819;BME280;49970;54.976;73.248;2022-11-25T05:15:16;100929.13;;;-18.61;76.50
63819;BME280;49970;54.976;73.248;2022-11-25T05:17:49;100936.78;;;-18.44;76.14
63819;BME280;49970;54.976;73.248;2022-11-25T05:20:31;100935.72;;;-18.33;76.15
63819;BME280;49970;54.976;73.248;2022-11-25T05:23:01;100945.38;;;-18.26;75.83
63819;BME280;49970;54.976;73.248;2022-11-25T05:25:32;100929.25;;;-18.28;76.27
63819;BME280;49970;54.976;73.248;2022-11-25T05:28:31;100935.66;;;-18.18;77.06
63819;BME280;49970;54.976;73.248;2022-11-25T05:31:00;100932.00;;;-18.23;76.08
63819;BME280;49970;54.976;73.248;2022-11-25T05:33:30;100946.28;;;-18.09;76.14
63819;BME280;49970;54.976;73.248;2022-11-25T05:36:06;100938.13;;;-18.03;76.45
63819;BME280;49970;54.976;73.248;2022-11-25T05:38:44;100948.84;;;-17.93;75.80
63819;BME280;49970;54.976;73.248;2022-11-25T05:41:20;100956.81;;;-17.85;76.22
63819;BME280;49970;54.976;73.248;2022-11-25T05:44:02;100948.44;;;-17.84;74.90
63819;BME280;49970;54.976;73.248;2022-11-25T05:46:32;100943.00;;;-17.92;76.02
63819;BME280;49970;54.976;73.248;2022-11-25T05:49:07;100971.28;;;-17.82;75.00
63819;BME280;49970;54.976;73.248;2022-11-25T05:51:44;100962.84;;;-17.83;75.38
63819;BME280;49970;54.976;73.248;2022-11-25T05:54:19;100964.75;;;-17.79;74.53
63819;BME280;49970;54.976;73.248;2022-11-25T05:56:50;100969.22;;;-17.73;75.14
63819;BME280;49970;54.976;73.248;2022-11-25T05:59:34;100976.09;;;-17.71;74.69
63819;BME280;49970;54.976;73.248;2022-11-25T06:02:13;100967.16;;;-17.64;74.75
63819;BME280;49970;54.976;73.248;2022-11-25T06:04:54;100972.44;;;-17.60;74.85
63819;BME280;49970;54.976;73.248;2022-11-25T06:07:35;100958.06;;;-17.61;74.89
63819;BME280;49970;54.976;73.248;2022-11-25T06:10:07;100974.06;;;-17.45;74.84
63819;BME280;49970;54.976;73.248;2022-11-25T06:12:44;100976.13;;;-17.38;74.40
63819;BME280;49970;54.976;73.248;2022-11-25T06:15:20;100960.69;;;-17.43;74.71
63819;BME280;49970;54.976;73.248;2022-11-25T06:17:53;100985.84;;;-17.29;74.76
63819;BME280;49970;54.976;73.248;2022-11-25T06:20:31;100981.63;;;-17.29;73.88
63819;BME280;49970;54.976;73.248;2022-11-25T06:23:02;100985.28;;;-17.24;75.59
63819;BME280;49970;54.976;73.248;2022-11-25T06:25:42;100979.63;;;-17.18;75.55
63819;BME280;49970;54.976;73.248;2022-11-25T06:28:12;100979.81;;;-17.15;76.21
63819;BME280;49970;54.976;73.248;2022-11-25T06:30:48;100984.38;;;-17.08;76.07
63819;BME280;49970;54.976;73.248;2022-11-25T06:33:45;100980.72;;;-16.97;76.65
63819;BME280;49970;54.976;73.248;2022-11-25T06:36:28;100966.03;;;-17.04;76.35
63819;BME280;49970;54.976;73.248;2022-11-25T06:38:54;100986.31;;;-16.86;76.43
63819;BME280;49970;54.976;73.248;2022-11-25T06:41:26;100982.84;;;-16.88;76.37
63819;BME280;49970;54.976;73.248;2022-11-25T06:43:52;100993.34;;;-16.80;75.95
63819;BME280;49970;54.976;73.248;2022-11-25T06:46:28;100988.16;;;-16.83;76.28
63819;BME280;49970;54.976;73.248;2022-11-25T06:48:58;100985.53;;;-16.85;75.90
63819;BME280;49970;54.976;73.248;2022-11-25T06:51:34;100990.81;;;-16.80;75.65
63819;BME280;49970;54.976;73.248;2022-11-25T06:54:00;100985.75;;;-16.80;75.47
63819;BME280;49970;54.976;73.248;2022-11-25T06:56:28;100976.72;;;-16.75;74.97
63819;BME280;49970;54.976;73.248;2022-11-25T06:58:55;100994.94;;;-16.65;75.31
63819;BME280;49970;54.976;73.248;2022-11-25T07:01:27;100997.63;;;-16.62;75.05
63819;BME280;49970;54.976;73.248;2022-11-25T07:04:01;100998.56;;;-16.60;74.98
63819;BME280;49970;54.976;73.248;2022-11-25T07:06:33;100987.44;;;-16.63;74.32
63819;BME280;49970;54.976;73.248;2022-11-25T07:09:03;101011.09;;;-16.63;74.04
63819;BME280;49970;54.976;73.248;2022-11-25T07:11:35;101016.88;;;-16.65;73.67
63819;BME280;49970;54.976;73.248;2022-11-25T07:14:07;101003.19;;;-16.69;74.03
63819;BME280;49970;54.976;73.248;2022-11-25T07:16:37;101019.41;;;-16.65;73.82
63819;BME280;49970;54.976;73.248;2022-11-25T07:19:04;101018.63;;;-16.64;73.68
63819;BME280;49970;54.976;73.248;2022-11-25T07:21:32;101009.22;;;-16.67;73.34
63819;BME280;49970;54.976;73.248;2022-11-25T07:24:03;101024.88;;;-16.58;73.36
63819;BME280;49970;54.976;73.248;2022-11-25T07:26:33;101011.16;;;-16.61;73.25
63819;BME280;49970;54.976;73.248;2022-11-25T07:29:19;100997.13;;;-16.72;73.26
63819;BME280;49970;54.976;73.248;2022-11-25T07:32:52;101011.16;;;-16.61;73.28
63819;BME280;49970;54.976;73.248;2022-11-25T07:35:19;101010.25;;;-16.63;73.13
63819;BME280;49970;54.976;73.248;2022-11-25T07:37:45;100995.69;;;-16.67;72.76
63819;BME280;49970;54.976;73.248;2022-11-25T07:40:12;101003.50;;;-16.63;72.67
63819;BME280;49970;54.976;73.248;2022-11-25T07:42:38;101030.00;;;-16.56;72.75
63819;BME280;49970;54.976;73.248;2022-11-25T07:45:08;101021.88;;;-16.67;72.91
63819;BME280;49970;54.976;73.248;2022-11-25T07:47:49;101029.28;;;-16.71;73.59
63819;BME280;49970;54.976;73.248;2022-11-25T07:50:15;101025.81;;;-16.73;73.35
63819;BME280;49970;54.976;73.248;2022-11-25T07:52:46;101038.50;;;-16.72;72.95
63819;BME280;49970;54.976;73.248;2022-11-25T07:55:17;101041.88;;;-16.73;73.20
63819;BME280;49970;54.976;73.248;2022-11-25T07:57:45;101045.84;;;-16.78;73.50
63819;BME280;49970;54.976;73.248;2022-11-25T08:00:11;101040.31;;;-16.87;73.40
63819;BME280;49970;54.976;73.248;2022-11-25T08:02:44;101035.91;;;-16.91;73.39
63819;BME280;49970;54.976;73.248;2022-11-25T08:05:10;101048.41;;;-16.94;73.84
63819;BME280;49970;54.976;73.248;2022-11-25T08:07:36;101046.50;;;-16.98;74.22
63819;BME280;49970;54.976;73.248;2022-11-25T08:10:12;101053.16;;;-17.00;74.20
63819;BME280;49970;54.976;73.248;2022-11-25T08:12:38;101059.00;;;-17.01;73.93
63819;BME280;49970;54.976;73.248;2022-11-25T08:15:05;101063.13;;;-17.03;73.82
63819;BME280;49970;54.976;73.248;2022-11-25T08:17:32;101061.41;;;-17.04;74.47
63819;BME280;49970;54.976;73.248;2022-11-25T08:19:58;101067.41;;;-17.02;74.43
63819;BME280;49970;54.976;73.248;2022-11-25T08:22:34;101065.84;;;-17.00;74.54
63819;BME280;49970;54.976;73.248;2022-11-25T08:25:01;101075.34;;;-16.96;74.22
63819;BME280;49970;54.976;73.248;2022-11-25T08:27:27;101075.16;;;-16.99;74.01
63819;BME280;49970;54.976;73.248;2022-11-25T08:29:59;101086.72;;;-17.04;74.62
63819;BME280;49970;54.976;73.248;2022-11-25T08:32:38;101078.97;;;-17.07;74.84
63819;BME280;49970;54.976;73.248;2022-11-25T08:35:05;101077.94;;;-17.11;73.93
63819;BME280;49970;54.976;73.248;2022-11-25T08:37:32;101086.50;;;-17.09;74.90
63819;BME280;49970;54.976;73.248;2022-11-25T08:39:58;101091.22;;;-17.15;74.30
63819;BME280;49970;54.976;73.248;2022-11-25T08:42:25;101083.22;;;-17.23;73.93
63819;BME280;49970;54.976;73.248;2022-11-25T08:45:03;101083.94;;;-17.25;74.27
63819;BME280;49970;54.976;73.248;2022-11-25T08:47:40;101106.00;;;-17.23;73.92
63819;BME280;49970;54.976;73.248;2022-11-25T08:50:09;101111.88;;;-17.24;73.89
63819;BME280;49970;54.976;73.248;2022-11-25T08:52:36;101098.00;;;-17.30;74.28
63819;BME280;49970;54.976;73.248;2022-11-25T08:55:06;101117.97;;;-17.20;74.42
63819;BME280;49970;54.976;73.248;2022-11-25T08:57:33;101110.84;;;-17.27;74.24
63819;BME280;49970;54.976;73.248;2022-11-25T09:00:00;101132.13;;;-17.24;74.14
63819;BME280;49970;54.976;73.248;2022-11-25T09:02:26;101126.91;;;-17.27;74.51
63819;BME280;49970;54.976;73.248;2022-11-25T09:04:52;101135.28;;;-17.28;74.87
63819;BME280;49970;54.976;73.248;2022-11-25T09:07:19;101137.75;;;-17.29;74.30
63819;BME280;49970;54.976;73.248;2022-11-25T09:09:54;101143.50;;;-17.32;74.70
63819;BME280;49970;54.976;73.248;2022-11-25T09:12:32;101155.47;;;-17.29;74.93
63819;BME280;49970;54.976;73.248;2022-11-25T09:14:58;101154.59;;;-17.30;75.34
63819;BME280;49970;54.976;73.248;2022-11-25T09:17:24;101166.38;;;-17.30;75.37
63819;BME280;49970;54.976;73.248;2022-11-25T09:20:03;101166.38;;;-17.30;75.08
63819;BME280;49970;54.976;73.248;2022-11-25T09:22:31;101169.00;;;-17.29;74.69
63819;BME280;49970;54.976;73.248;2022-11-25T09:25:07;101174.94;;;-17.28;74.69
63819;BME280;49970;54.976;73.248;2022-11-25T09:27:34;101180.00;;;-17.28;74.46
63819;BME280;49970;54.976;73.248;2022-11-25T09:30:10;101187.59;;;-17.28;75.54
63819;BME280;49970;54.976;73.248;2022-11-25T09:32:48;101196.59;;;-17.33;75.56
63819;BME280;49970;54.976;73.248;2022-11-25T09:35:25;101207.25;;;-17.39;74.57
63819;BME280;49970;54.976;73.248;2022-11-25T09:38:02;101207.16;;;-17.41;75.06
63819;BME280;49970;54.976;73.248;2022-11-25T09:43:26;101206.13;;;-17.44;74.45
63819;BME280;49970;54.976;73.248;2022-11-25T09:46:44;101216.19;;;-17.46;75.30
63819;BME280;49970;54.976;73.248;2022-11-25T09:55:09;101229.44;;;-17.50;74.90
63819;BME280;49970;54.976;73.248;2022-11-25T10:00:39;101251.19;;;-17.53;74.92
63819;BME280;49970;54.976;73.248;2022-11-25T10:03:15;101252.84;;;-17.54;75.96
63819;BME280;49970;54.976;73.248;2022-11-25T10:05:46;101262.25;;;-17.51;76.01
63819;BME280;49970;54.976;73.248;2022-11-25T10:08:18;101272.38;;;-17.51;75.34
63819;BME280;49970;54.976;73.248;2022-11-25T10:10:54;101262.16;;;-17.53;75.43
63819;BME280;49970;54.976;73.248;2022-11-25T10:19:22;101290.88;;;-17.52;76.47
63819;BME280;49970;54.976;73.248;2022-11-25T10:21:50;101288.28;;;-17.54;75.75
63819;BME280;49970;54.976;73.248;2022-11-25T10:24:17;101302.59;;;-17.54;76.38
63819;BME280;49970;54.976;73.248;2022-11-25T10:26:50;101304.84;;;-17.59;76.64
63819;BME280;49970;54.976;73.248;2022-11-25T10:29:29;101318.28;;;-17.60;76.28
63819;BME280;49970;54.976;73.248;2022-11-25T10:32:36;101333.31;;;-17.63;75.65
63819;BME280;49970;54.976;73.248;2022-11-25T10:35:06;101330.66;;;-17.65;76.14
63819;BME280;49970;54.976;73.248;2022-11-25T10:37:44;101331.19;;;-17.70;77.00
63819;BME280;49970;54.976;73.248;2022-11-25T10:40:20;101334.34;;;-17.74;76.85
63819;BME280;49970;54.976;73.248;2022-11-25T10:42:46;101342.47;;;-17.80;76.56
63819;BME280;49970;54.976;73.248;2022-11-25T10:45:29;101340.53;;;-17.84;76.20
63819;BME280;49970;54.976;73.248;2022-11-25T10:48:20;101339.56;;;-17.86;76.60
63819;BME280;49970;54.976;73.248;2022-11-25T10:57:17;101372.38;;;-17.88;78.17
63819;BME280;49970;54.976;73.248;2022-11-25T10:59:55;101383.94;;;-17.91;77.21
63819;BME280;49970;54.976;73.248;2022-11-25T11:07:38;101404.59;;;-17.98;77.88
63819;BME280;49970;54.976;73.248;2022-11-25T11:10:20;101406.16;;;-18.00;77.00
63819;BME280;49970;54.976;73.248;2022-11-25T11:13:22;101402.47;;;-18.05;77.59
63819;BME280;49970;54.976;73.248;2022-11-25T11:15:50;101404.53;;;-18.13;77.54
63819;BME280;49970;54.976;73.248;2022-11-25T11:21:04;101432.72;;;-18.07;76.92
63819;BME280;49970;54.976;73.248;2022-11-25T11:23:46;101435.97;;;-18.09;78.20
63819;BME280;49970;54.976;73.248;2022-11-25T11:26:25;101451.88;;;-18.11;78.03
63819;BME280;49970;54.976;73.248;2022-11-25T11:31:30;101462.69;;;-18.13;77.70
63819;BME280;49970;54.976;73.248;2022-11-25T11:42:28;101490.63;;;-18.25;77.50
63819;BME280;49970;54.976;73.248;2022-11-25T11:56:20;101523.66;;;-18.48;76.92
63819;BME280;49970;54.976;73.248;2022-11-25T12:02:14;101529.56;;;-18.61;77.48
63819;BME280;49970;54.976;73.248;2022-11-25T12:07:56;101538.25;;;-18.71;78.77
63819;BME280;49970;54.976;73.248;2022-11-25T12:10:30;101545.50;;;-18.75;78.19
63819;BME280;49970;54.976;73.248;2022-11-25T12:13:07;101548.69;;;-18.78;77.60
63819;BME280;49970;54.976;73.248;2022-11-25T12:21:06;101562.53;;;-18.98;78.41
63819;BME280;49970;54.976;73.248;2022-11-25T12:23:53;101579.06;;;-18.90;77.83
63819;BME280;49970;54.976;73.248;2022-11-25T12:26:53;101593.13;;;-18.93;78.87
63819;BME280;49970;54.976;73.248;2022-11-25T12:29:43;101589.91;;;-19.04;77.82
63819;BME280;49970;54.976;73.248;2022-11-25T12:38:04;101636.78;;;-19.07;78.61
63819;BME280;49970;54.976;73.248;2022-11-25T12:40:59;101618.56;;;-19.15;78.29
63819;BME280;49970;54.976;73.248;2022-11-25T12:43:48;101630.31;;;-19.16;79.62
63819;BME280;49970;54.976;73.248;2022-11-25T12:46:43;101630.31;;;-19.16;79.68
63819;BME280;49970;54.976;73.248;2022-11-25T12:49:31;101629.13;;;-19.21;79.13
63819;BME280;49970;54.976;73.248;2022-11-25T12:55:13;101652.72;;;-19.20;79.82
63819;BME280;49970;54.976;73.248;2022-11-25T12:58:00;101655.91;;;-19.23;79.39
63819;BME280;49970;54.976;73.248;2022-11-25T13:09:32;101682.16;;;-19.32;80.11
63819;BME280;49970;54.976;73.248;2022-11-25T13:15:21;101701.16;;;-19.38;79.55
63819;BME280;49970;54.976;73.248;2022-11-25T13:17:55;101711.16;;;-19.39;79.97
63819;BME280;49970;54.976;73.248;2022-11-25T13:25:31;101731.88;;;-19.43;80.52
63819;BME280;49970;54.976;73.248;2022-11-25T13:27:59;101736.72;;;-19.46;80.39
63819;BME280;49970;54.976;73.248;2022-11-25T13:38:34;101755.88;;;-19.48;79.54
63819;BME280;49970;54.976;73.248;2022-11-25T13:41:56;101759.09;;;-19.51;79.88
63819;BME280;49970;54.976;73.248;2022-11-25T13:46:41;101766.66;;;-19.51;79.77
63819;BME280;49970;54.976;73.248;2022-11-25T13:49:25;101755.91;;;-19.60;80.11
63819;BME280;49970;54.976;73.248;2022-11-25T13:52:22;101783.06;;;-19.56;79.44
63819;BME280;49970;54.976;73.248;2022-11-25T13:54:53;101784.53;;;-19.59;79.78
63819;BME280;49970;54.976;73.248;2022-11-25T14:00:02;101793.66;;;-19.62;79.27
63819;BME280;49970;54.976;73.248;2022-11-25T14:02:42;101801.97;;;-19.63;80.58
63819;BME280;49970;54.976;73.248;2022-11-25T14:07:59;101813.72;;;-19.63;79.05
63819;BME280;49970;54.976;73.248;2022-11-25T14:13:26;101820.81;;;-19.69;79.42
63819;BME280;49970;54.976;73.248;2022-11-25T14:21:25;101841.97;;;-19.79;79.41
63819;BME280;49970;54.976;73.248;2022-11-25T14:24:28;101848.31;;;-19.84;80.27
63819;BME280;49970;54.976;73.248;2022-11-25T14:26:57;101849.84;;;-19.86;79.02
63819;BME280;49970;54.976;73.248;2022-11-25T14:29:35;101843.22;;;-19.96;80.22
63819;BME280;49970;54.976;73.248;2022-11-25T14:34:37;101861.22;;;-19.91;79.72
63819;BME280;49970;54.976;73.248;2022-11-25T14:40:11;101882.03;;;-19.94;79.84
63819;BME280;49970;54.976;73.248;2022-11-25T14:42:42;101876.63;;;-19.98;80.25
63819;BME280;49970;54.976;73.248;2022-11-25T14:48:16;101893.16;;;-20.02;79.29
63819;BME280;49970;54.976;73.248;2022-11-25T14:51:04;101906.53;;;-20.03;79.83
63819;BME280;49970;54.976;73.248;2022-11-25T14:53:39;101915.66;;;-20.05;79.57
63819;BME280;49970;54.976;73.248;2022-11-25T14:56:11;101910.34;;;-20.08;80.04
63819;BME280;49970;54.976;73.248;2022-11-25T14:58:40;101920.34;;;-20.09;79.75
63819;BME280;49970;54.976;73.248;2022-11-25T15:01:17;101915.06;;;-20.13;80.08
63819;BME280;49970;54.976;73.248;2022-11-25T15:03:48;101929.41;;;-20.12;79.51
63819;BME280;49970;54.976;73.248;2022-11-25T15:06:15;101914.19;;;-20.23;79.92
63819;BME280;49970;54.976;73.248;2022-11-25T15:08:53;101940.66;;;-20.18;79.58
63819;BME280;49970;54.976;73.248;2022-11-25T15:11:28;101945.81;;;-20.17;79.64
63819;BME280;49970;54.976;73.248;2022-11-25T15:14:03;101952.25;;;-20.20;80.08